Time;durP1;ratioP1;P1;durP2;ratioP2;P2;SDS_P1;SDS_P2;PMS_P1;PMS_P2;Temp;Humidity;BMP_temperature;BMP_pressure;BME280_temperature;BME280_humidity;BME280_pressure;Samples;Min_cycle;Max_cycle;Signal;HPM_P1;HPM_P2
2024/01/16 00:01:58;;;;;;;13.85;1.60;;;0.60;99.90;;;;;;5073242;28;20040;-70
2024/01/16 00:04:23;;;;;;;12.40;1.60;;;0.60;99.90;;;;;;5071566;28;20044;-70
2024/01/16 00:06:49;;;;;;;11.40;1.85;;;0.60;99.90;;;;;;5073198;28;20083;-70
2024/01/16 00:09:14;;;;;;;9.88;1.60;;;0.60;99.90;;;;;;5073170;28;20508;-70
2024/01/16 00:11:43;;;;;;;13.77;2.28;;;0.60;99.90;;;;;;5055492;28;20123;-70
2024/01/16 00:14:09;;;;;;;10.93;1.63;;;0.50;99.90;;;;;;5073068;28;20032;-70
2024/01/16 00:17:01;;;;;;;11.80;1.60;;;0.60;99.90;;;;;;5071549;28;20148;-70
2024/01/16 00:19:27;;;;;;;10.25;1.90;;;0.60;99.90;;;;;;5071872;28;20044;-70
2024/01/16 00:21:52;;;;;;;7.63;1.77;;;0.50;99.90;;;;;;5071997;28;20040;-70
2024/01/16 00:24:18;;;;;;;11.95;1.90;;;0.60;99.90;;;;;;5071471;28;20463;-70
2024/01/16 00:26:44;;;;;;;11.57;1.67;;;0.60;99.90;;;;;;5071375;28;20055;-70
2024/01/16 00:29:12;;;;;;;11.98;1.90;;;0.50;99.90;;;;;;5054768;28;20124;-70
2024/01/16 00:31:38;;;;;;;10.85;1.60;;;0.50;99.90;;;;;;5072969;28;20086;-70
2024/01/16 00:34:04;;;;;;;9.27;1.33;;;0.50;99.90;;;;;;5071398;28;20033;-70
2024/01/16 00:36:30;;;;;;;11.73;1.48;;;0.50;99.90;;;;;;5054755;28;20045;-70
2024/01/16 00:38:56;;;;;;;9.27;1.48;;;0.50;99.90;;;;;;5072893;28;20044;-70
2024/01/16 00:41:21;;;;;;;12.65;1.60;;;0.50;99.90;;;;;;5072906;28;20067;-70
2024/01/16 00:43:47;;;;;;;8.73;1.17;;;0.40;99.90;;;;;;5073736;28;20048;-70
2024/01/16 00:46:13;;;;;;;8.93;1.40;;;0.50;99.90;;;;;;5075008;28;20044;-70
2024/01/16 00:48:38;;;;;;;11.77;1.60;;;0.50;99.90;;;;;;5075061;28;20121;-70
2024/01/16 00:51:04;;;;;;;9.52;1.30;;;0.50;99.90;;;;;;5076543;28;20032;-70
2024/01/16 00:53:30;;;;;;;8.55;1.02;;;0.40;99.90;;;;;;5074932;28;20033;-71
2024/01/16 00:55:55;;;;;;;7.20;1.20;;;0.50;99.90;;;;;;5074796;28;20071;-71
2024/01/16 00:58:24;;;;;;;10.73;1.55;;;0.40;99.90;;;;;;5075085;28;20040;-70
2024/01/16 01:00:50;;;;;;;7.15;1.17;;;0.40;99.90;;;;;;5075010;28;20044;-70
2024/01/16 01:03:15;;;;;;;4.20;1.08;;;0.30;99.90;;;;;;5076315;28;20546;-70
2024/01/16 01:05:41;;;;;;;8.55;2.17;;;0.40;99.90;;;;;;5076107;28;20048;-70
2024/01/16 01:08:07;;;;;;;9.43;0.90;;;0.40;99.90;;;;;;5076210;28;20028;-70
2024/01/16 01:10:33;;;;;;;7.60;1.10;;;0.40;99.90;;;;;;5076168;28;20041;-70
2024/01/16 01:12:58;;;;;;;8.95;0.90;;;0.30;99.90;;;;;;5074561;28;20548;-70
2024/01/16 01:15:24;;;;;;;10.93;1.27;;;0.40;99.90;;;;;;5075934;28;20044;-70
2024/01/16 01:17:50;;;;;;;4.95;1.00;;;0.40;99.90;;;;;;5074521;28;20504;-70
2024/01/16 01:20:18;;;;;;;5.75;0.80;;;0.40;99.90;;;;;;5075965;28;20044;-70
2024/01/16 01:22:44;;;;;;;4.38;0.77;;;0.50;99.90;;;;;;5074407;28;20502;-70
2024/01/16 01:25:11;;;;;;;6.07;1.05;;;0.50;99.90;;;;;;5074384;28;20041;-70
2024/01/16 01:27:37;;;;;;;4.72;1.00;;;0.60;99.90;;;;;;5075847;28;20040;-70
2024/01/16 01:30:03;;;;;;;7.38;0.95;;;0.60;99.90;;;;;;5074493;28;20044;-70
2024/01/16 01:32:29;;;;;;;11.70;1.00;;;0.60;99.90;;;;;;5075720;28;20041;-70
2024/01/16 01:34:54;;;;;;;5.80;0.80;;;0.60;99.90;;;;;;5074074;28;20036;-70
2024/01/16 01:37:20;;;;;;;7.50;1.15;;;0.70;99.90;;;;;;5074094;28;20036;-70
2024/01/16 01:39:46;;;;;;;5.70;0.65;;;0.60;99.90;;;;;;5075623;28;20036;-70
2024/01/16 01:42:11;;;;;;;6.03;0.68;;;0.60;99.90;;;;;;5074053;28;20044;-70
2024/01/16 01:44:37;;;;;;;6.65;0.80;;;0.60;99.90;;;;;;5075035;28;20051;-70
2024/01/16 01:47:03;;;;;;;5.60;0.80;;;0.60;99.90;;;;;;5073928;28;20073;-70
2024/01/16 01:49:30;;;;;;;4.97;0.70;;;0.60;99.90;;;;;;5074204;28;20044;-70
2024/01/16 01:51:56;;;;;;;5.82;0.80;;;0.50;99.90;;;;;;5075420;28;20068;-70
2024/01/16 01:54:22;;;;;;;5.85;0.70;;;0.50;99.90;;;;;;5073535;28;20483;-70
2024/01/16 01:56:49;;;;;;;2.58;0.57;;;0.50;99.90;;;;;;5075235;28;20037;-70
2024/01/16 01:59:18;;;;;;;4.30;0.80;;;0.40;99.90;;;;;;5074790;28;20044;-70
2024/01/16 02:01:45;;;;;;;4.28;0.90;;;0.40;99.90;;;;;;5075184;28;20094;-70
2024/01/16 02:04:14;;;;;;;7.82;0.80;;;0.30;99.90;;;;;;5075045;28;20059;-70
2024/01/16 02:06:39;;;;;;;6.45;0.95;;;0.40;99.90;;;;;;5073497;28;20500;-70
2024/01/16 02:09:06;;;;;;;4.93;0.70;;;0.30;99.90;;;;;;5074691;28;20115;-70
2024/01/16 02:11:32;;;;;;;4.88;0.80;;;0.30;99.90;;;;;;5073503;28;20040;-70
2024/01/16 02:13:58;;;;;;;5.55;0.90;;;0.20;99.90;;;;;;5074541;28;20132;-70
2024/01/16 02:16:24;;;;;;;6.38;0.95;;;0.20;99.90;;;;;;5074894;28;20041;-70
2024/01/16 02:18:51;;;;;;;7.88;0.95;;;0.20;99.90;;;;;;5073311;28;20062;-70
2024/01/16 02:21:22;;;;;;;6.53;1.63;;;0.20;99.90;;;;;;5073302;28;20072;-70
2024/01/16 02:23:48;;;;;;;5.75;0.82;;;0.30;99.90;;;;;;5074725;28;20050;-70
2024/01/16 02:26:17;;;;;;;6.55;1.02;;;0.30;99.90;;;;;;5074608;28;20045;-70
2024/01/16 02:28:43;;;;;;;6.78;1.00;;;0.30;99.90;;;;;;5073106;28;20047;-71
2024/01/16 02:31:09;;;;;;;5.45;0.85;;;0.40;99.90;;;;;;5074575;28;20036;-70
2024/01/16 02:33:34;;;;;;;6.95;1.20;;;0.40;99.90;;;;;;5073301;28;20115;-70
2024/01/16 02:36:00;;;;;;;3.80;0.82;;;0.50;99.90;;;;;;5072926;28;20044;-70
2024/01/16 02:38:25;;;;;;;6.35;1.10;;;0.50;99.90;;;;;;5072890;28;20042;-70
2024/01/16 02:40:51;;;;;;;8.48;1.10;;;0.50;99.90;;;;;;5072889;28;20133;-70
2024/01/16 02:43:17;;;;;;;10.73;1.23;;;0.60;99.90;;;;;;5072616;28;20123;-70
2024/01/16 02:45:42;;;;;;;8.23;1.15;;;0.60;99.90;;;;;;5072810;28;20041;-71
2024/01/16 02:48:09;;;;;;;5.40;0.85;;;0.60;99.90;;;;;;5074208;28;20451;-71
2024/01/16 02:50:34;;;;;;;6.35;1.00;;;0.60;99.90;;;;;;5072684;28;20070;-70
2024/01/16 02:53:00;;;;;;;6.75;1.10;;;0.50;99.90;;;;;;5074154;28;20067;-70
2024/01/16 02:55:25;;;;;;;6.75;0.80;;;0.50;99.90;;;;;;5072811;28;20036;-70
2024/01/16 02:57:51;;;;;;;9.43;1.05;;;0.50;99.90;;;;;;5072816;28;20401;-70
2024/01/16 03:00:17;;;;;;;5.03;0.90;;;0.50;99.90;;;;;;5074011;28;20397;-70
2024/01/16 03:02:44;;;;;;;11.25;1.30;;;0.50;99.90;;;;;;5073988;28;20037;-70
2024/01/16 03:05:10;;;;;;;11.48;1.30;;;0.50;99.90;;;;;;5072257;28;20044;-70
2024/01/16 03:07:36;;;;;;;8.77;0.93;;;0.50;99.90;;;;;;5071632;28;20509;-71
2024/01/16 03:10:03;;;;;;;5.03;0.82;;;0.50;99.90;;;;;;5072585;28;20044;-71
2024/01/16 03:12:28;;;;;;;6.80;0.90;;;0.50;99.90;;;;;;5073825;28;20401;-71
2024/01/16 03:14:54;;;;;;;3.78;0.90;;;0.50;99.90;;;;;;5073710;28;20554;-71
2024/01/16 03:17:20;;;;;;;6.43;0.73;;;0.40;99.90;;;;;;5073773;28;20041;-71
2024/01/16 03:19:45;;;;;;;3.88;0.63;;;0.40;99.90;;;;;;5072204;28;20083;-71
2024/01/16 03:22:11;;;;;;;8.30;1.00;;;0.40;99.90;;;;;;5073659;28;20116;-71
2024/01/16 03:24:36;;;;;;;8.73;1.25;;;0.40;99.90;;;;;;5073517;28;20040;-70
2024/01/16 03:27:04;;;;;;;6.30;0.82;;;0.40;99.90;;;;;;5073251;28;20107;-70
2024/01/16 03:29:29;;;;;;;7.97;0.90;;;0.30;99.90;;;;;;5072044;28;20123;-71
2024/01/16 03:31:55;;;;;;;7.45;0.70;;;0.20;99.90;;;;;;5072011;28;20124;-71
2024/01/16 03:34:20;;;;;;;6.13;0.77;;;0.20;99.90;;;;;;5072013;28;20037;-71
2024/01/16 03:36:46;;;;;;;9.18;1.15;;;0.20;99.90;;;;;;5073154;28;20040;-70
2024/01/16 03:39:11;;;;;;;7.88;0.90;;;0.20;99.90;;;;;;5072004;28;20044;-70
2024/01/16 03:41:37;;;;;;;7.15;0.80;;;0.20;99.90;;;;;;5071961;28;20044;-70
2024/01/16 03:44:03;;;;;;;9.13;0.93;;;0.20;99.90;;;;;;5071677;28;20045;-70
2024/01/16 03:46:29;;;;;;;9.95;1.25;;;0.20;99.90;;;;;;5071824;28;20091;-70
2024/01/16 03:48:54;;;;;;;5.32;0.80;;;0.20;99.90;;;;;;5071894;28;20079;-70
2024/01/16 03:51:20;;;;;;;4.05;0.90;;;0.10;99.90;;;;;;5073378;28;20075;-70
2024/01/16 03:53:46;;;;;;;7.72;1.00;;;0.20;99.90;;;;;;5073238;28;20081;-71
2024/01/16 03:56:12;;;;;;;9.52;1.40;;;0.20;99.90;;;;;;5071815;28;20048;-70
2024/01/16 03:58:39;;;;;;;5.55;0.98;;;0.20;99.90;;;;;;5071814;28;20039;-70
2024/01/16 04:01:05;;;;;;;9.07;1.20;;;0.20;99.90;;;;;;5071787;28;20051;-70
2024/01/16 04:03:30;;;;;;;6.18;1.13;;;0.20;99.90;;;;;;5073271;28;20036;-70
2024/01/16 04:05:56;;;;;;;8.27;1.23;;;0.30;99.90;;;;;;5073080;28;20048;-70
2024/01/16 04:08:21;;;;;;;8.90;1.00;;;0.30;99.90;;;;;;5071727;28;20531;-70
2024/01/16 04:10:47;;;;;;;11.18;1.65;;;0.20;99.90;;;;;;5073245;28;20032;-70
2024/01/16 04:13:13;;;;;;;7.18;1.17;;;0.20;99.90;;;;;;5073176;28;20374;-70
2024/01/16 04:15:39;;;;;;;11.32;2.03;;;0.20;99.90;;;;;;5071538;28;20045;-70
2024/01/16 04:18:05;;;;;;;9.23;1.33;;;0.30;99.90;;;;;;5073539;28;20040;-70
2024/01/16 04:20:30;;;;;;;7.15;1.10;;;0.30;99.90;;;;;;5075663;28;20072;-70
2024/01/16 04:22:57;;;;;;;6.00;0.95;;;0.30;99.90;;;;;;5075598;28;20091;-70
2024/01/16 04:25:23;;;;;;;8.68;1.08;;;0.20;99.90;;;;;;5075333;28;20048;-70
2024/01/16 04:27:49;;;;;;;8.60;1.33;;;0.20;99.90;;;;;;5075483;28;20038;-70
2024/01/16 04:30:14;;;;;;;9.77;1.20;;;0.30;99.90;;;;;;5075728;28;20098;-70
2024/01/16 04:32:40;;;;;;;5.93;1.10;;;0.30;99.90;;;;;;5075420;28;20386;-70
2024/01/16 04:35:06;;;;;;;7.50;1.17;;;0.30;99.90;;;;;;5075319;28;20044;-70
2024/01/16 04:37:31;;;;;;;11.85;0.98;;;0.30;99.90;;;;;;5075315;28;20049;-70
2024/01/16 04:39:59;;;;;;;11.25;1.30;;;0.20;99.90;;;;;;5075267;28;20044;-70
2024/01/16 04:42:24;;;;;;;8.80;1.35;;;0.30;99.90;;;;;;5076721;28;20055;-70
2024/01/16 04:44:50;;;;;;;10.60;1.27;;;0.30;99.90;;;;;;5074858;28;20041;-70
2024/01/16 04:47:15;;;;;;;12.40;2.22;;;0.30;99.90;;;;;;5075309;28;20036;-70
2024/01/16 04:49:44;;;;;;;11.52;1.20;;;0.30;99.90;;;;;;5075062;28;20409;-70
2024/01/16 04:52:09;;;;;;;7.72;1.30;;;0.20;99.90;;;;;;5076191;28;20404;-70
2024/01/16 04:54:35;;;;;;;8.65;1.17;;;0.20;99.90;;;;;;5074903;28;20041;-70
2024/01/16 04:57:00;;;;;;;6.72;1.40;;;0.20;99.90;;;;;;5076406;28;20047;-70
2024/01/16 04:59:26;;;;;;;9.48;1.10;;;0.10;99.90;;;;;;5074853;28;20033;-70
2024/01/16 05:01:52;;;;;;;8.73;1.10;;;0.10;99.90;;;;;;5076333;28;20037;-70
2024/01/16 05:04:18;;;;;;;9.55;1.92;;;0.10;99.90;;;;;;5076216;28;20068;-70
2024/01/16 05:06:43;;;;;;;8.88;1.77;;;0.10;99.90;;;;;;5076184;28;20040;-70
2024/01/16 05:09:09;;;;;;;8.70;1.23;;;0.10;99.90;;;;;;5076219;28;20043;-70
2024/01/16 05:11:35;;;;;;;11.50;1.70;;;0.10;99.90;;;;;;5074657;28;20485;-70
2024/01/16 05:14:01;;;;;;;9.23;1.85;;;0.10;99.90;;;;;;5076030;28;20115;-70
2024/01/16 05:16:27;;;;;;;11.27;1.42;;;0.00;99.90;;;;;;5058140;28;20062;-70
2024/01/16 05:18:53;;;;;;;7.93;1.10;;;0.10;99.90;;;;;;5076063;28;20111;-70
2024/01/16 05:21:19;;;;;;;6.78;1.13;;;0.10;99.90;;;;;;5076018;28;20397;-70
2024/01/16 05:23:45;;;;;;;5.93;1.00;;;0.10;99.90;;;;;;5074428;28;20049;-70
2024/01/16 05:26:11;;;;;;;12.35;1.30;;;0.00;99.90;;;;;;5074443;28;20041;-70
2024/01/16 05:28:38;;;;;;;10.52;1.13;;;0.10;99.90;;;;;;5074174;28;20495;-70
2024/01/16 05:31:04;;;;;;;8.82;1.10;;;0.00;99.90;;;;;;5074221;28;20044;-70
2024/01/16 05:33:29;;;;;;;7.63;1.83;;;0.00;99.90;;;;;;5074542;28;20489;-70
2024/01/16 05:35:57;;;;;;;8.82;1.27;;;0.00;99.90;;;;;;5074739;28;20497;-70
2024/01/16 05:38:23;;;;;;;7.53;0.80;;;-0.10;99.90;;;;;;5075660;28;20036;-70
2024/01/16 05:40:48;;;;;;;11.70;1.27;;;0.00;99.90;;;;;;5074332;28;20040;-70
2024/01/16 05:43:14;;;;;;;10.85;2.03;;;-0.10;99.90;;;;;;5075293;28;20110;-70
2024/01/16 05:45:40;;;;;;;11.40;1.38;;;-0.10;99.90;;;;;;5073894;28;20044;-70
2024/01/16 05:48:07;;;;;;;9.70;0.98;;;0.00;99.90;;;;;;5075492;28;20107;-71
2024/01/16 05:50:34;;;;;;;7.60;1.15;;;-0.10;99.90;;;;;;5073910;28;20044;-70
2024/01/16 05:53:00;;;;;;;10.18;1.48;;;0.00;99.90;;;;;;5073863;28;20122;-70
2024/01/16 05:55:25;;;;;;;9.82;1.30;;;0.00;99.90;;;;;;5073780;28;20080;-70
2024/01/16 05:57:51;;;;;;;8.25;1.65;;;0.00;99.90;;;;;;5073784;28;20040;-70
2024/01/16 06:00:18;;;;;;;9.27;1.05;;;-0.10;99.90;;;;;;5075007;28;20044;-70
2024/01/16 06:02:44;;;;;;;5.85;1.05;;;-0.10;99.90;;;;;;5073703;28;20046;-70
2024/01/16 06:05:10;;;;;;;6.13;1.58;;;0.00;99.90;;;;;;5073481;28;20414;-70
2024/01/16 06:07:35;;;;;;;14.40;1.27;;;0.00;99.90;;;;;;5075082;28;20111;-70
2024/01/16 06:10:01;;;;;;;9.20;1.48;;;0.00;99.90;;;;;;5056891;28;20044;-70
2024/01/16 06:12:26;;;;;;;11.25;1.60;;;0.00;99.90;;;;;;5073483;28;20093;-70
2024/01/16 06:14:52;;;;;;;8.00;2.00;;;0.00;99.90;;;;;;5074900;28;20068;-70
2024/01/16 06:17:17;;;;;;;10.75;1.70;;;0.00;99.90;;;;;;5073376;28;20041;-70
2024/01/16 06:19:43;;;;;;;9.93;1.38;;;0.00;99.90;;;;;;5074880;28;20105;-70
2024/01/16 06:22:09;;;;;;;6.85;1.05;;;0.00;99.90;;;;;;5056659;28;20231;-70
2024/01/16 06:24:36;;;;;;;10.05;1.10;;;0.00;99.90;;;;;;5073436;28;20033;-70
2024/01/16 06:27:06;;;;;;;8.02;1.25;;;0.00;99.90;;;;;;5074709;28;20040;-70
2024/01/16 06:29:31;;;;;;;6.38;0.98;;;0.00;99.90;;;;;;5073167;28;20112;-70
2024/01/16 06:31:57;;;;;;;10.38;1.00;;;0.00;99.90;;;;;;5073091;28;20120;-71
2024/01/16 06:34:23;;;;;;;8.48;1.20;;;0.10;99.90;;;;;;5072972;28;20045;-70
2024/01/16 06:36:48;;;;;;;8.98;1.20;;;0.00;99.90;;;;;;5072982;28;20053;-70
2024/01/16 06:39:14;;;;;;;9.95;1.15;;;0.10;99.90;;;;;;5073243;28;20056;-70
2024/01/16 06:41:41;;;;;;;10.05;1.40;;;0.00;99.90;;;;;;5074399;28;20495;-70
2024/01/16 06:44:06;;;;;;;7.38;0.88;;;0.10;99.90;;;;;;5072878;28;20048;-71
2024/01/16 06:46:32;;;;;;;9.88;1.02;;;0.10;99.90;;;;;;5072791;28;20044;-70
2024/01/16 06:48:58;;;;;;;4.90;1.00;;;0.10;99.90;;;;;;5073007;28;20040;-70
2024/01/16 06:51:23;;;;;;;5.78;0.93;;;0.10;99.90;;;;;;5074233;28;20389;-70
2024/01/16 06:53:49;;;;;;;8.18;1.40;;;0.10;99.90;;;;;;5072826;28;20047;-70
2024/01/16 06:56:14;;;;;;;6.40;1.13;;;0.10;99.90;;;;;;5056003;28;20554;-70
2024/01/16 06:58:40;;;;;;;7.82;1.35;;;0.10;99.90;;;;;;5072844;28;20047;-70
2024/01/16 07:01:05;;;;;;;7.93;1.17;;;0.00;99.90;;;;;;5074094;28;20041;-68
2024/01/16 07:03:31;;;;;;;6.68;1.23;;;0.10;99.90;;;;;;5072465;28;20048;-68
2024/01/16 07:05:57;;;;;;;8.40;1.35;;;0.10;99.90;;;;;;5073786;28;20043;-68
2024/01/16 07:08:23;;;;;;;7.38;1.33;;;0.00;99.90;;;;;;5072391;28;20432;-68
2024/01/16 07:10:48;;;;;;;7.32;1.92;;;0.00;99.90;;;;;;5072321;28;20040;-68
2024/01/16 07:13:14;;;;;;;7.10;1.60;;;0.10;99.90;;;;;;5073786;28;20107;-68
2024/01/16 07:15:39;;;;;;;12.48;1.77;;;0.10;99.90;;;;;;5072161;28;20051;-68
2024/01/16 07:18:05;;;;;;;10.60;1.77;;;0.10;99.90;;;;;;5073710;28;20043;-68
2024/01/16 07:20:31;;;;;;;9.75;1.77;;;0.00;99.90;;;;;;5073713;28;20481;-70
2024/01/16 07:22:56;;;;;;;7.45;1.92;;;0.20;99.90;;;;;;5073641;28;20041;-70
2024/01/16 07:25:22;;;;;;;8.02;2.00;;;0.10;99.90;;;;;;5073312;28;20075;-70
2024/01/16 07:27:49;;;;;;;8.05;2.08;;;0.20;99.90;;;;;;5073616;28;20485;-70
2024/01/16 07:30:15;;;;;;;12.10;1.88;;;0.20;99.90;;;;;;5072041;28;20048;-70
2024/01/16 07:32:41;;;;;;;9.20;1.75;;;0.20;99.90;;;;;;5073522;28;20393;-70
2024/01/16 07:35:07;;;;;;;9.02;2.50;;;0.20;99.90;;;;;;5073427;28;20490;-70
2024/01/16 07:37:32;;;;;;;10.02;2.40;;;0.20;99.90;;;;;;5071955;28;20115;-70
2024/01/16 07:39:58;;;;;;;9.88;2.70;;;0.20;99.90;;;;;;5073423;28;20136;-70
2024/01/16 07:42:24;;;;;;;12.82;2.80;;;0.20;99.90;;;;;;5073444;28;20039;-70
2024/01/16 07:44:50;;;;;;;10.73;2.88;;;0.20;99.90;;;;;;5071693;28;20040;-70
2024/01/16 07:47:15;;;;;;;7.95;3.03;;;0.10;99.90;;;;;;5073182;28;20123;-71
2024/01/16 07:49:42;;;;;;;10.88;3.20;;;0.20;99.90;;;;;;5072275;28;20033;-70
2024/01/16 07:52:07;;;;;;;14.98;4.50;;;0.20;99.90;;;;;;5073008;28;20041;-70
2024/01/16 07:54:33;;;;;;;13.95;3.53;;;0.20;99.90;;;;;;5073363;28;20028;-70
2024/01/16 07:56:59;;;;;;;15.30;3.97;;;0.30;99.90;;;;;;5073327;28;20441;-70
2024/01/16 07:59:26;;;;;;;11.95;3.50;;;0.20;99.90;;;;;;5071779;28;20051;-71
2024/01/16 08:01:52;;;;;;;12.02;4.00;;;0.20;99.90;;;;;;5073846;28;20162;-70
2024/01/16 08:04:17;;;;;;;8.43;4.07;;;0.30;99.90;;;;;;5073228;28;20117;-70
2024/01/16 08:06:43;;;;;;;12.25;4.22;;;0.20;99.90;;;;;;5071691;28;20044;-70
2024/01/16 08:09:11;;;;;;;10.52;4.55;;;0.30;99.90;;;;;;5073227;28;20037;-70
2024/01/16 08:11:39;;;;;;;11.80;4.88;;;0.20;99.90;;;;;;5071935;28;20116;-70
2024/01/16 08:14:05;;;;;;;11.45;4.13;;;0.20;99.90;;;;;;5073142;28;20047;-70
2024/01/16 08:16:30;;;;;;;15.15;5.07;;;0.20;99.90;;;;;;5073402;28;20032;-70
2024/01/16 08:18:56;;;;;;;10.00;4.95;;;0.20;99.90;;;;;;5071607;28;20386;-70
2024/01/16 08:21:22;;;;;;;11.98;5.00;;;0.30;99.90;;;;;;5071609;28;20079;-70
2024/01/16 08:23:47;;;;;;;12.98;4.78;;;0.30;99.90;;;;;;5072348;28;20047;-70
2024/01/16 08:26:13;;;;;;;11.32;4.15;;;0.30;99.90;;;;;;5072957;28;20482;-70
2024/01/16 08:28:38;;;;;;;12.07;5.13;;;0.30;99.90;;;;;;5071504;28;20120;-70
2024/01/16 08:31:04;;;;;;;9.20;4.25;;;0.20;99.90;;;;;;5073131;28;20041;-70
2024/01/16 08:33:30;;;;;;;15.48;5.07;;;0.30;99.90;;;;;;5071796;28;20037;-70
2024/01/16 08:35:55;;;;;;;12.43;4.82;;;0.40;99.90;;;;;;5073092;28;20120;-70
2024/01/16 08:38:21;;;;;;;11.68;5.03;;;0.40;99.90;;;;;;5071794;28;20040;-70
2024/01/16 08:40:47;;;;;;;11.88;5.60;;;0.50;99.90;;;;;;5072923;28;20066;-71
2024/01/16 08:43:12;;;;;;;10.60;5.90;;;0.60;99.90;;;;;;5071194;28;20044;-71
2024/01/16 08:45:38;;;;;;;13.90;5.70;;;0.70;99.90;;;;;;5054873;28;20080;-71
2024/01/16 08:48:04;;;;;;;13.70;6.70;;;0.60;99.90;;;;;;5072851;28;20496;-71
2024/01/16 08:50:29;;;;;;;12.77;6.35;;;0.70;99.90;;;;;;5071605;28;20047;-71
2024/01/16 08:52:55;;;;;;;12.90;5.65;;;0.70;99.90;;;;;;5071291;28;20497;-71
2024/01/16 08:55:21;;;;;;;10.68;5.78;;;0.90;99.90;;;;;;5071423;28;20044;-71
2024/01/16 08:57:46;;;;;;;13.20;5.18;;;0.90;99.90;;;;;;5072753;28;20398;-70
2024/01/16 09:00:12;;;;;;;9.85;5.03;;;0.90;99.90;;;;;;5071200;28;20045;-70
2024/01/16 09:02:38;;;;;;;10.68;4.75;;;0.80;99.90;;;;;;5071450;28;20048;-70
2024/01/16 09:05:05;;;;;;;8.30;4.40;;;1.00;99.90;;;;;;5072738;28;20507;-70
2024/01/16 09:07:30;;;;;;;12.45;4.60;;;0.90;99.90;;;;;;5076243;28;20044;-70
2024/01/16 09:09:56;;;;;;;9.30;4.28;;;0.90;99.90;;;;;;5074993;28;20098;-70
2024/01/16 09:12:21;;;;;;;8.57;4.30;;;0.90;99.90;;;;;;5076155;28;20470;-71
2024/01/16 09:14:47;;;;;;;13.52;4.65;;;1.00;99.90;;;;;;5074868;28;20123;-71
2024/01/16 09:17:13;;;;;;;9.88;3.67;;;0.90;99.90;;;;;;5076151;28;20470;-71
2024/01/16 09:19:38;;;;;;;8.32;3.90;;;1.00;99.90;;;;;;5057889;28;20097;-70
2024/01/16 09:22:04;;;;;;;9.70;4.40;;;0.90;99.90;;;;;;5074562;28;20447;-71
2024/01/16 09:24:30;;;;;;;11.38;4.00;;;1.00;99.90;;;;;;5074418;28;20041;-71
2024/01/16 09:26:58;;;;;;;11.13;3.85;;;0.90;99.90;;;;;;5075843;28;20098;-71
2024/01/16 09:29:24;;;;;;;8.80;4.55;;;1.00;99.90;;;;;;5074408;28;20512;-71
2024/01/16 09:31:50;;;;;;;8.85;3.85;;;1.00;99.90;;;;;;5074350;28;20526;-71
2024/01/16 09:34:17;;;;;;;10.82;4.30;;;1.00;99.90;;;;;;5074259;28;20075;-71
2024/01/16 09:36:42;;;;;;;7.57;4.53;;;1.00;99.90;;;;;;5074306;28;20082;-71
2024/01/16 09:39:08;;;;;;;12.07;4.93;;;1.00;99.90;;;;;;5074489;28;20071;-71
2024/01/16 09:41:34;;;;;;;9.13;4.95;;;1.00;99.90;;;;;;5074525;28;20086;-71
2024/01/16 09:44:00;;;;;;;11.95;6.10;;;1.10;99.90;;;;;;5075361;28;20044;-71
2024/01/16 09:46:26;;;;;;;14.13;7.40;;;1.10;99.90;;;;;;5074418;28;20045;-71
2024/01/16 09:48:55;;;;;;;16.55;7.43;;;1.10;99.90;;;;;;5074029;28;20484;-71
2024/01/16 09:51:20;;;;;;;11.02;7.03;;;1.10;99.90;;;;;;5074288;28;20452;-71
2024/01/16 09:53:46;;;;;;;15.25;7.28;;;1.10;99.90;;;;;;5073848;28;20040;-71
2024/01/16 09:56:16;;;;;;;13.40;7.28;;;1.10;99.90;;;;;;5075427;28;20044;-71
2024/01/16 09:58:43;;;;;;;18.00;8.07;;;1.00;99.90;;;;;;5073819;28;20501;-71
2024/01/16 10:01:10;;;;;;;19.80;7.30;;;1.00;99.90;;;;;;5075571;28;20199;-71
2024/01/16 10:03:36;;;;;;;14.13;7.05;;;1.10;99.90;;;;;;5073758;28;20048;-71
2024/01/16 10:06:07;;;;;;;12.20;6.63;;;1.10;99.90;;;;;;5073634;28;20048;-71
2024/01/16 10:08:33;;;;;;;19.58;7.13;;;1.00;99.90;;;;;;5075166;28;20075;-71
2024/01/16 10:11:02;;;;;;;14.60;7.22;;;1.00;99.90;;;;;;5073605;28;20068;-73
2024/01/16 10:13:27;;;;;;;17.58;6.93;;;1.20;99.90;;;;;;5073794;28;20071;-74
2024/01/16 10:15:55;;;;;;;14.98;6.90;;;1.20;99.90;;;;;;5073091;28;20075;-72
2024/01/16 10:18:29;;;;;;;12.45;6.30;;;1.10;99.90;;;;;;5074659;28;20560;-71
2024/01/16 10:20:55;;;;;;;14.05;6.75;;;1.20;99.90;;;;;;5073687;28;20051;-70
2024/01/16 10:23:32;;;;;;;15.05;6.03;;;1.10;99.90;;;;;;5073635;28;20417;-70
2024/01/16 10:26:07;;;;;;;14.27;5.93;;;1.10;99.90;;;;;;5073363;28;20524;-71
2024/01/16 10:28:34;;;;;;;11.35;5.80;;;1.30;99.90;;;;;;5073333;28;20037;-71
2024/01/16 10:31:06;;;;;;;13.18;5.65;;;1.20;99.90;;;;;;5074712;28;20075;-70
2024/01/16 10:33:32;;;;;;;14.00;4.97;;;1.30;99.90;;;;;;5074312;28;20401;-70
2024/01/16 10:36:20;;;;;;;10.85;4.22;;;1.30;99.90;;;;;;5072949;28;20041;-71
2024/01/16 10:38:46;;;;;;;12.00;3.55;;;1.40;99.90;;;;;;5074542;28;20052;-71
2024/01/16 10:41:13;;;;;;;15.90;3.67;;;1.40;99.90;;;;;;5072965;28;20044;-71
2024/01/16 10:43:40;;;;;;;7.28;3.00;;;1.50;99.90;;;;;;5072681;28;20071;-71
2024/01/16 10:46:14;;;;;;;7.28;2.58;;;1.50;99.90;;;;;;5072764;28;20041;-70
2024/01/16 10:48:41;;;;;;;9.95;2.92;;;1.50;99.90;;;;;;5073105;28;20061;-71
2024/01/16 10:51:08;;;;;;;6.55;2.00;;;1.50;99.90;;;;;;5072723;28;20501;-71
2024/01/16 10:53:35;;;;;;;7.65;2.00;;;1.50;99.90;;;;;;5072633;28;20048;-71
2024/01/16 10:56:02;;;;;;;5.88;1.80;;;1.40;99.90;;;;;;5072664;28;20517;-71
2024/01/16 10:58:31;;;;;;;6.72;1.80;;;1.40;99.90;;;;;;5072870;28;20110;-71
2024/01/16 11:01:01;;;;;;;6.88;1.83;;;1.40;99.90;;;;;;5072560;28;20055;-71
2024/01/16 11:03:40;;;;;;;4.15;1.73;;;1.40;99.90;;;;;;5072748;28;20060;-71
2024/01/16 11:06:07;;;;;;;8.13;1.77;;;1.40;99.90;;;;;;5073350;28;20063;-71
2024/01/16 11:08:37;;;;;;;4.75;1.63;;;1.50;99.90;;;;;;5072700;28;20382;-71
2024/01/16 11:11:04;;;;;;;7.15;1.60;;;1.50;99.90;;;;;;5073858;28;20044;-71
2024/01/16 11:13:33;;;;;;;7.18;1.58;;;1.50;99.90;;;;;;5072346;28;20041;-71
2024/01/16 11:16:00;;;;;;;7.90;1.40;;;1.50;99.90;;;;;;5073761;28;20072;-71
2024/01/16 11:18:29;;;;;;;8.52;1.98;;;1.50;99.90;;;;;;5072206;28;20044;-71
2024/01/16 11:20:55;;;;;;;7.30;1.25;;;1.50;99.90;;;;;;5073359;28;20532;-71
2024/01/16 11:23:21;;;;;;;8.10;1.67;;;1.60;99.90;;;;;;5072180;28;20063;-71
2024/01/16 11:25:47;;;;;;;7.85;1.50;;;1.60;99.90;;;;;;5072011;28;20044;-71
2024/01/16 11:28:14;;;;;;;6.80;1.33;;;1.60;99.90;;;;;;5072991;28;20028;-71
2024/01/16 11:30:40;;;;;;;5.68;1.02;;;1.60;99.90;;;;;;5072365;28;20072;-71
2024/01/16 11:33:26;;;;;;;7.60;1.40;;;1.50;99.90;;;;;;5072069;28;20111;-71
2024/01/16 11:35:51;;;;;;;7.80;1.38;;;1.60;99.90;;;;;;5071844;28;20052;-71
2024/01/16 11:38:19;;;;;;;8.00;1.20;;;1.50;99.90;;;;;;5073490;28;20040;-71
2024/01/16 11:40:45;;;;;;;9.38;1.55;;;1.50;99.90;;;;;;5071977;28;20080;-71
2024/01/16 11:43:32;;;;;;;7.25;1.80;;;1.50;99.90;;;;;;5072086;28;20119;-70
2024/01/16 11:46:01;;;;;;;7.82;1.30;;;1.50;99.90;;;;;;5073409;28;20045;-71
2024/01/16 11:48:27;;;;;;;6.28;1.30;;;1.40;99.90;;;;;;5073435;28;20040;-71
2024/01/16 11:50:53;;;;;;;7.45;2.10;;;1.50;99.90;;;;;;5073540;28;20435;-71
2024/01/16 11:53:42;;;;;;;4.85;1.23;;;1.40;99.90;;;;;;5072124;28;20076;-70
2024/01/16 11:56:20;;;;;;;10.57;2.05;;;1.40;99.90;;;;;;5073417;28;20128;-70
2024/01/16 11:58:51;;;;;;;8.70;1.60;;;1.40;99.90;;;;;;5055089;28;20047;-70
2024/01/16 12:01:19;;;;;;;8.35;1.75;;;1.40;99.90;;;;;;5071827;28;20044;-70
2024/01/16 12:03:45;;;;;;;8.40;1.52;;;1.30;99.90;;;;;;5071691;28;20413;-70
2024/01/16 12:06:10;;;;;;;10.52;1.90;;;1.40;99.90;;;;;;5071722;28;20103;-70
2024/01/16 12:08:37;;;;;;;9.25;2.17;;;1.40;99.90;;;;;;5072920;28;20064;-70
2024/01/16 12:11:04;;;;;;;11.82;2.60;;;1.40;99.90;;;;;;5072914;28;20493;-70
2024/01/16 12:13:30;;;;;;;11.43;2.83;;;1.40;99.90;;;;;;5071749;28;20033;-70
2024/01/16 12:16:04;;;;;;;12.77;2.85;;;1.30;99.90;;;;;;5071591;28;20059;-71
2024/01/16 12:18:29;;;;;;;11.40;2.70;;;1.40;99.90;;;;;;5072101;28;20052;-70
2024/01/16 12:20:55;;;;;;;9.75;2.95;;;1.50;99.90;;;;;;5073175;28;20033;-70
2024/01/16 12:23:23;;;;;;;7.35;3.05;;;1.50;99.90;;;;;;5072704;28;20064;-70
2024/01/16 12:25:52;;;;;;;12.50;3.13;;;1.50;99.90;;;;;;5071399;28;20101;-70
2024/01/16 12:28:20;;;;;;;9.77;3.20;;;1.50;99.90;;;;;;5071799;28;20040;-70
2024/01/16 12:30:51;;;;;;;8.88;3.30;;;1.50;99.90;;;;;;5054785;28;20082;-70
2024/01/16 12:33:21;;;;;;;7.50;3.50;;;1.60;99.90;;;;;;5071602;28;20093;-70
2024/01/16 12:35:47;;;;;;;9.95;3.60;;;1.70;99.90;;;;;;5073206;28;20045;-70
2024/01/16 12:38:14;;;;;;;9.35;3.40;;;2.00;99.90;;;;;;5072029;28;20048;-70
2024/01/16 12:40:49;;;;;;;10.35;3.58;;;2.40;99.90;;;;;;5075565;28;20048;-70
2024/01/16 12:43:18;;;;;;;11.85;3.90;;;2.90;99.90;;;;;;5075426;28;20147;-70
2024/01/16 12:45:44;;;;;;;9.68;3.17;;;3.50;99.90;;;;;;5075462;28;20037;-71
2024/01/16 12:48:10;;;;;;;13.85;3.42;;;4.30;99.90;;;;;;5075402;28;20036;-70
2024/01/16 12:50:37;;;;;;;10.30;3.45;;;5.20;99.90;;;;;;5075421;28;20048;-71